Stena Europe — VSTA3 — position and weather

sailwx.info

Track history (hours):
 
Tides and Currents Weather Stations Pressure Air Temp Water Temp Dewpoint Dewpoint Depression Visibility Wind Speed Wind Dir Waves Ship Positions

Stena Europe

Operator: Stena Line

Last reported at 2018-Nov-11 02:32 UTC. Time now 2018-Nov-13 06:34 UTC.
Position N 52°18' W 005°52'.

Length 149 m; draft 6.1 m.

Type: Passenger vessel. MMSI: 235004539.

Date/timePositionNaut miles runAvg speedWind from/ knotsBaromVisibWave heightAir tempDewpointWater temp
2018-Nov-11 02:32N 52°18' W 005°52'713.6
2018-Nov-11 02:00N 52°13' W 005°43'13 1.8
2018-Nov-10 18:43N 52°13' W 006°05'316.4
2018-Nov-10 18:33N 52°13' W 006°09'714.0
2018-Nov-10 18:02N 52°15' W 006°20'0 0.3
2018-Nov-10 17:32N 52°15' W 006°20'0 0.0
2018-Nov-10 17:02N 52°15' W 006°20'1 2.0
2018-Nov-10 16:32N 52°15' W 006°19'815.7
2018-Nov-10 16:02N 52°13' W 006°06'816.3
2018-Nov-10 15:32N 52°11' W 005°53'2 0.4
2018-Nov-10 09:19N 52°10' W 005°50'416.2
2018-Nov-10 09:03N 52°12' W 005°57'915.9
2018-Nov-10 08:31N 52°14' W 006°10'613.8
2018-Nov-10 08:02N 52°15' W 006°20'0 0.3
2018-Nov-10 07:32N 52°15' W 006°20'0 0.0
2018-Nov-10 07:02N 52°15' W 006°20'0 0.0
2018-Nov-10 06:32N 52°15' W 006°20'0 0.0
2018-Nov-10 06:02N 52°15' W 006°20'0 0.0
2018-Nov-10 05:32N 52°15' W 006°20'0 0.0
2018-Nov-10 05:02N 52°15' W 006°20'0 0.0
2018-Nov-10 04:32N 52°15' W 006°20'0 0.1
2018-Nov-10 04:02N 52°15' W 006°20'4 8.9
2018-Nov-10 03:32N 52°14' W 006°13'713.9
2018-Nov-10 03:02N 52°15' W 006°02'714.0
2018-Nov-10 02:32N 52°15' W 005°51'6 0.3
2018-Nov-09 09:21N 52°10' W 005°46'516.4
2018-Nov-09 09:02N 52°11' W 005°54'816.0
2018-Nov-09 08:32N 52°13' W 006°06'815.6
2018-Nov-09 08:02N 52°15' W 006°18'1 2.2
2018-Nov-09 07:32N 52°15' W 006°20'0 0.0
2018-Nov-09 07:02N 52°15' W 006°20'0 0.0
2018-Nov-09 06:32N 52°15' W 006°20'0 0.0
2018-Nov-09 06:02N 52°15' W 006°20'0 0.0
2018-Nov-09 05:32N 52°15' W 006°20'0 0.0
2018-Nov-09 05:02N 52°15' W 006°20'0 0.0
2018-Nov-09 04:32N 52°15' W 006°20'0 0.0
2018-Nov-09 04:02N 52°15' W 006°20'3 6.2
2018-Nov-09 03:32N 52°14' W 006°15'713.9
2018-Nov-09 03:02N 52°16' W 006°04'611.9
2018-Nov-09 02:32N 52°12' W 005°56'4 0.5
2018-Nov-08 19:27N 52°10' W 005°51'616.0
2018-Nov-08 19:02N 52°12' W 006°01'815.5
2018-Nov-08 18:32N 52°14' W 006°13'5 9.2
2018-Nov-08 18:02N 52°15' W 006°20'0 0.0
2018-Nov-08 17:32N 52°15' W 006°20'0 0.0
2018-Nov-08 17:02N 52°15' W 006°20'0 0.3
2018-Nov-08 16:32N 52°15' W 006°20'612.0
2018-Nov-08 16:03N 52°14' W 006°11'815.8
2018-Nov-08 15:32N 52°12' W 005°58'3 0.2
2018-Nov-07 19:10N 52°11' W 005°53'217.3
2018-Nov-07 19:02N 52°11' W 005°57'917.2
2018-Nov-07 18:32N 52°14' W 006°11'612.2
2018-Nov-07 18:02N 52°15' W 006°20'0 0.0
2018-Nov-07 17:32N 52°15' W 006°20'0 0.0
2018-Nov-07 17:02N 52°15' W 006°20'0 0.4
2018-Nov-07 16:32N 52°15' W 006°20'714.7
2018-Nov-07 16:02N 52°13' W 006°09'815.8
2018-Nov-07 15:32N 52°12' W 005°56'10 0.5
2018-Nov-06 19:59N 52°09' W 005°40'916.1
2018-Nov-06 19:27N 52°10' W 005°54'615.3
2018-Nov-06 19:03N 52°12' W 006°03'114.6
2018-Nov-06 19:00N 52°13' W 006°04'815.6
2018-Nov-06 18:30N 52°15' W 006°16'2 5.2
2018-Nov-06 18:03N 52°15' W 006°20'0 0.0
2018-Nov-06 18:00N 52°15' W 006°20'0 0.0
2018-Nov-06 17:30N 52°15' W 006°20'0 0.0
2018-Nov-06 17:03N 52°15' W 006°20'0 0.0
2018-Nov-06 17:00N 52°15' W 006°20'0 0.3
2018-Nov-06 16:30N 52°15' W 006°20'511.5
2018-Nov-06 16:03N 52°14' W 006°12'115.2
2018-Nov-06 16:00N 52°14' W 006°11'714.5
2018-Nov-06 15:30N 52°12' W 005°59'715.4
2018-Nov-06 15:03N 52°11' W 005°48'116.0
2018-Nov-06 15:00N 52°10' W 005°47'2 0.4
2018-Nov-06 09:20N 52°09' W 005°45'516.2
2018-Nov-06 09:03N 52°10' W 005°52'116.0
2018-Nov-06 09:00N 52°11' W 005°53'816.1
2018-Nov-06 08:30N 52°13' W 006°05'716.2
2018-Nov-06 08:03N 52°15' W 006°17'115.7
2018-Nov-06 08:00N 52°15' W 006°18'1 2.8
2018-Nov-06 07:30N 52°15' W 006°20'0 0.0
2018-Nov-06 07:03N 52°15' W 006°20'0 0.0
2018-Nov-06 07:00N 52°15' W 006°20'0 0.0
2018-Nov-06 06:30N 52°15' W 006°20'0 0.0
2018-Nov-06 06:03N 52°15' W 006°20'0 0.0
2018-Nov-06 06:00N 52°15' W 006°20'0 0.0
2018-Nov-06 05:30N 52°15' W 006°20'0 0.0
2018-Nov-06 05:03N 52°15' W 006°20'0 0.0
2018-Nov-06 05:00N 52°15' W 006°20'0 0.0
2018-Nov-06 04:30N 52°15' W 006°20'0 0.0
2018-Nov-06 04:03N 52°15' W 006°20'0 0.0
2018-Nov-06 04:00N 52°15' W 006°20'4 7.7
2018-Nov-06 03:30N 52°14' W 006°14'614.4
2018-Nov-06 03:03N 52°13' W 006°04'114.4
2018-Nov-06 03:00N 52°13' W 006°03'714.4
2018-Nov-06 02:30N 52°11' W 005°51'714.6
2018-Nov-06 02:02N 52°09' W 005°40'2 0.4
2018-Nov-05 19:20N 52°10' W 005°44'416.6
2018-Nov-05 19:03N 52°11' W 005°51'116.7
2018-Nov-05 19:00N 52°11' W 005°52'816.7
2018-Nov-05 18:30N 52°13' W 006°06'716.4
2018-Nov-05 18:03N 52°15' W 006°17'115.7
2018-Nov-05 18:00N 52°15' W 006°18'1 2.1
2018-Nov-05 17:30N 52°15' W 006°20'0 0.0
2018-Nov-05 17:04N 52°15' W 006°20'0 0.0
2018-Nov-05 17:00N 52°15' W 006°20'0 0.0
2018-Nov-05 16:30N 52°15' W 006°20'3 7.0
2018-Nov-05 16:03N 52°14' W 006°15'116.8
2018-Nov-05 16:00N 52°14' W 006°14'816.8
2018-Nov-05 15:30N 52°12' W 006°00'817.0
2018-Nov-05 15:03N 52°11' W 005°48'117.5
2018-Nov-05 15:00N 52°10' W 005°47'6 1.0
2018-Nov-05 08:55N 52°11' W 005°57'615.8
2018-Nov-05 08:30N 52°13' W 006°07'715.1
2018-Nov-05 08:03N 52°15' W 006°17'115.8
2018-Nov-05 08:00N 52°15' W 006°19'1 2.0
2018-Nov-05 07:30N 52°15' W 006°20'0 0.0
2018-Nov-05 07:03N 52°15' W 006°20'0 0.0
2018-Nov-05 07:00N 52°15' W 006°20'0 0.0
2018-Nov-05 06:30N 52°15' W 006°20'0 0.0
2018-Nov-05 06:03N 52°15' W 006°20'0 0.0
2018-Nov-05 06:00N 52°15' W 006°20'0 0.0
2018-Nov-05 05:30N 52°15' W 006°20'0 0.0
2018-Nov-05 05:03N 52°15' W 006°20'0 0.0
2018-Nov-05 05:00N 52°15' W 006°20'0 0.0
2018-Nov-05 04:30N 52°15' W 006°20'0 0.0
2018-Nov-05 04:03N 52°15' W 006°20'0 0.0
2018-Nov-05 04:00N 52°15' W 006°20'3 6.1
2018-Nov-05 03:30N 52°14' W 006°15'613.1
2018-Nov-05 03:03N 52°13' W 006°06'112.3
2018-Nov-05 03:00N 52°13' W 006°05'612.5
2018-Nov-05 02:30N 52°12' W 005°55'613.0
2018-Nov-05 02:03N 52°10' W 005°46'114.2
2018-Nov-05 02:00N 52°10' W 005°45'4 0.5
2018-Nov-04 19:15N 52°10' W 005°51'316.3
2018-Nov-04 19:03N 52°11' W 005°55'116.3
2018-Nov-04 19:00N 52°11' W 005°57'816.6
2018-Nov-04 18:30N 52°13' W 006°10'715.5
2018-Nov-04 18:04N 52°16' W 006°20'0 6.2
2018-Nov-04 18:00N 52°15' W 006°20'0 0.0
2018-Nov-04 17:03N 52°15' W 006°20'0 0.0
2018-Nov-04 17:00N 52°15' W 006°20'0 0.4
2018-Nov-04 16:30N 52°16' W 006°20'714.9
2018-Nov-04 16:03N 52°14' W 006°10'116.3
2018-Nov-04 16:00N 52°13' W 006°09'816.3
2018-Nov-04 15:30N 52°11' W 005°56'716.1
2018-Nov-04 15:03N 52°10' W 005°44'116.0
2018-Nov-04 15:00N 52°10' W 005°43'10 1.6
2018-Nov-04 08:51N 52°12' W 005°58'616.6
2018-Nov-04 08:31N 52°13' W 006°07'816.7
2018-Nov-04 08:03N 52°16' W 006°19'114.4
2018-Nov-04 08:01N 52°16' W 006°20'0 0.7
2018-Nov-04 07:31N 52°15' W 006°20'0 0.0
2018-Nov-04 07:04N 52°15' W 006°20'0 0.0
2018-Nov-04 07:00N 52°15' W 006°20'0 0.0
2018-Nov-04 06:30N 52°15' W 006°20'0 0.0
2018-Nov-04 06:03N 52°15' W 006°20'0 0.0
2018-Nov-04 06:00N 52°15' W 006°20'0 0.0
2018-Nov-04 05:31N 52°15' W 006°20'0 0.0
2018-Nov-04 05:03N 52°15' W 006°20'0 0.0
2018-Nov-04 05:01N 52°15' W 006°20'0 0.0
2018-Nov-04 04:31N 52°15' W 006°20'0 0.0
2018-Nov-04 04:03N 52°15' W 006°20'0 2.2
2018-Nov-04 04:00N 52°15' W 006°20'611.3
2018-Nov-04 03:30N 52°15' W 006°11'511.4
2018-Nov-04 03:03N 52°17' W 006°03'111.6
2018-Nov-04 03:00N 52°17' W 006°03'611.5
2018-Nov-04 02:30N 52°20' W 005°54'612.3
2018-Nov-04 02:01N 52°18' W 005°45'013.5
2018-Nov-04 02:00N 52°18' W 005°44'10 0.6
2018-Nov-03 09:01N 52°12' W 005°57'115.7
2018-Nov-03 08:59N 52°12' W 005°58'715.3
2018-Nov-03 08:30N 52°13' W 006°09'715.5
2018-Nov-03 08:03N 52°16' W 006°20'0 6.4
2018-Nov-03 08:00N 52°15' W 006°20'0 0.3
2018-Nov-03 07:30N 52°15' W 006°20'0 0.0
2018-Nov-03 07:03N 52°15' W 006°20'0 0.0
2018-Nov-03 07:01N 52°15' W 006°20'0 0.0
2018-Nov-03 06:31N 52°15' W 006°20'0 0.0
2018-Nov-03 06:03N 52°15' W 006°20'0 0.0
2018-Nov-03 06:00N 52°15' W 006°20'0 0.0
2018-Nov-03 05:30N 52°15' W 006°20'0 0.0
2018-Nov-03 05:03N 52°15' W 006°20'0 0.0
2018-Nov-03 05:01N 52°15' W 006°20'0 0.0
2018-Nov-03 04:31N 52°15' W 006°20'0 0.0
2018-Nov-03 04:04N 52°15' W 006°20'0 0.4
2018-Nov-03 04:01N 52°15' W 006°20'510.2
2018-Nov-03 03:31N 52°14' W 006°12'614.3
2018-Nov-03 03:03N 52°13' W 006°02'114.2
2018-Nov-03 03:00N 52°13' W 006°01'713.5
2018-Nov-03 02:30N 52°11' W 005°50'611.6
2018-Nov-03 02:01N 52°09' W 005°41'111.5
2018-Nov-03 01:57N 52°09' W 005°40'10 1.5
2018-Nov-02 18:57N 52°12' W 005°56'817.3
2018-Nov-02 18:30N 52°14' W 006°09'715.9
2018-Nov-02 18:03N 52°16' W 006°20'0 7.8
2018-Nov-02 18:00N 52°15' W 006°20'0 0.3
2018-Nov-02 17:30N 52°15' W 006°20'0 0.0
2018-Nov-02 17:03N 52°15' W 006°20'0 0.0
2018-Nov-02 17:01N 52°15' W 006°20'1 2.0
2018-Nov-02 16:30N 52°15' W 006°18'715.9
2018-Nov-02 16:03N 52°14' W 006°07'115.8
2018-Nov-02 16:01N 52°14' W 006°06'816.3
2018-Nov-02 15:31N 52°13' W 005°53'7 1.1
2018-Nov-02 09:20N 52°09' W 005°44'516.9
2018-Nov-02 09:03N 52°10' W 005°51'116.4
2018-Nov-02 09:00N 52°11' W 005°52'816.6
2018-Nov-02 08:30N 52°13' W 006°05'817.0
2018-Nov-02 08:03N 52°15' W 006°17'117.7
2018-Nov-02 08:00N 52°15' W 006°19'1 2.0
2018-Nov-02 07:30N 52°15' W 006°20'0 0.0
2018-Nov-02 07:04N 52°15' W 006°20'0 0.0
2018-Nov-02 07:00N 52°15' W 006°20'0 0.0
2018-Nov-02 06:31N 52°15' W 006°20'0 0.0
2018-Nov-02 06:04N 52°15' W 006°20'0 0.0
2018-Nov-02 06:00N 52°15' W 006°20'0 0.0
2018-Nov-02 05:30N 52°15' W 006°20'0 0.0
2018-Nov-02 05:04N 52°15' W 006°20'0 0.1
2018-Nov-02 05:01N 52°15' W 006°20'5 9.9
2018-Nov-02 04:30N 52°14' W 006°12'716.3
2018-Nov-02 04:03N 52°12' W 006°01'116.4
2018-Nov-02 04:00N 52°12' W 005°59'816.3
2018-Nov-02 03:30N 52°10' W 005°46'1 0.2
2018-Nov-01 20:32N 52°10' W 005°44'216.8
2018-Nov-01 20:26N 52°10' W 005°47'616.6
2018-Nov-01 20:03N 52°11' W 005°57'116.6
2018-Nov-01 20:00N 52°12' W 005°58'816.4
2018-Nov-01 19:30N 52°14' W 006°11'613.1
2018-Nov-01 19:04N 52°15' W 006°20'0 0.0
2018-Nov-01 19:00N 52°15' W 006°20'0 0.0
2018-Nov-01 18:30N 52°15' W 006°20'0 0.0
2018-Nov-01 18:03N 52°15' W 006°20'0 0.0
2018-Nov-01 18:00N 52°15' W 006°20'0 0.0
2018-Nov-01 17:31N 52°15' W 006°20'2 3.6
2018-Nov-01 17:03N 52°15' W 006°18'115.1
2018-Nov-01 17:00N 52°15' W 006°17'816.6
2018-Nov-01 16:30N 52°12' W 006°03'716.3
2018-Nov-01 16:03N 52°11' W 005°52'116.3
2018-Nov-01 16:00N 52°11' W 005°50'1 0.2
2018-Nov-01 09:17N 52°11' W 005°48'417.2
2018-Nov-01 09:03N 52°11' W 005°55'116.6
2018-Nov-01 09:00N 52°11' W 005°56'817.0
2018-Nov-01 08:30N 52°13' W 006°09'715.6
2018-Nov-01 08:03N 52°15' W 006°20'0 3.5
2018-Nov-01 08:00N 52°15' W 006°20'0 0.0
2018-Nov-01 07:30N 52°15' W 006°20'0 0.0
2018-Nov-01 07:03N 52°15' W 006°20'0 0.0
2018-Nov-01 07:00N 52°15' W 006°20'0 0.0
2018-Nov-01 06:30N 52°15' W 006°20'0 0.0
2018-Nov-01 06:03N 52°15' W 006°20'0 0.0
2018-Nov-01 06:00N 52°15' W 006°20'0 0.0
2018-Nov-01 05:30N 52°15' W 006°20'0 0.0
2018-Nov-01 05:03N 52°15' W 006°20'0 0.0
2018-Nov-01 05:00N 52°15' W 006°20'0 0.0
2018-Nov-01 04:30N 52°15' W 006°20'0 0.6
2018-Nov-01 04:03N 52°16' W 006°20'111.2
2018-Nov-01 04:00N 52°16' W 006°20'815.7
2018-Nov-01 03:30N 52°13' W 006°07'716.3
2018-Nov-01 03:03N 52°11' W 005°56'116.2
2018-Nov-01 03:00N 52°11' W 005°54'  
Track history (hours):
 
Tides and Currents Weather Stations Pressure Air Temp Water Temp Dewpoint Dewpoint Depression Visibility Wind Speed Wind Dir Waves Ship Positions

Stena Europe

Operator: Stena Line

Last reported at 2018-Nov-11 02:32 UTC. Time now 2018-Nov-13 06:34 UTC.
Position N 52°18' W 005°52'.

Length 149 m; draft 6.1 m.

Type: Passenger vessel. MMSI: 235004539.

Date/timePositionNaut miles runAvg speedWind from/ knotsBaromVisibWave heightAir tempDewpointWater temp
2018-Nov-11 02:32N 52°18' W 005°52'713.6
2018-Nov-11 02:00N 52°13' W 005°43'13 1.8
2018-Nov-10 18:43N 52°13' W 006°05'316.4
2018-Nov-10 18:33N 52°13' W 006°09'714.0
2018-Nov-10 18:02N 52°15' W 006°20'0 0.3
2018-Nov-10 17:32N 52°15' W 006°20'0 0.0
2018-Nov-10 17:02N 52°15' W 006°20'1 2.0
2018-Nov-10 16:32N 52°15' W 006°19'815.7
2018-Nov-10 16:02N 52°13' W 006°06'816.3
2018-Nov-10 15:32N 52°11' W 005°53'2 0.4
2018-Nov-10 09:19N 52°10' W 005°50'416.2
2018-Nov-10 09:03N 52°12' W 005°57'915.9
2018-Nov-10 08:31N 52°14' W 006°10'613.8
2018-Nov-10 08:02N 52°15' W 006°20'0 0.3
2018-Nov-10 07:32N 52°15' W 006°20'0 0.0
2018-Nov-10 07:02N 52°15' W 006°20'0 0.0
2018-Nov-10 06:32N 52°15' W 006°20'0 0.0
2018-Nov-10 06:02N 52°15' W 006°20'0 0.0
2018-Nov-10 05:32N 52°15' W 006°20'0 0.0
2018-Nov-10 05:02N 52°15' W 006°20'0 0.0
2018-Nov-10 04:32N 52°15' W 006°20'0 0.1
2018-Nov-10 04:02N 52°15' W 006°20'4 8.9
2018-Nov-10 03:32N 52°14' W 006°13'713.9
2018-Nov-10 03:02N 52°15' W 006°02'714.0
2018-Nov-10 02:32N 52°15' W 005°51'6 0.3
2018-Nov-09 09:21N 52°10' W 005°46'516.4
2018-Nov-09 09:02N 52°11' W 005°54'816.0
2018-Nov-09 08:32N 52°13' W 006°06'815.6
2018-Nov-09 08:02N 52°15' W 006°18'1 2.2
2018-Nov-09 07:32N 52°15' W 006°20'0 0.0
2018-Nov-09 07:02N 52°15' W 006°20'0 0.0
2018-Nov-09 06:32N 52°15' W 006°20'0 0.0
2018-Nov-09 06:02N 52°15' W 006°20'0 0.0
2018-Nov-09 05:32N 52°15' W 006°20'0 0.0
2018-Nov-09 05:02N 52°15' W 006°20'0 0.0
2018-Nov-09 04:32N 52°15' W 006°20'0 0.0
2018-Nov-09 04:02N 52°15' W 006°20'3 6.2
2018-Nov-09 03:32N 52°14' W 006°15'713.9
2018-Nov-09 03:02N 52°16' W 006°04'611.9
2018-Nov-09 02:32N 52°12' W 005°56'4 0.5
2018-Nov-08 19:27N 52°10' W 005°51'616.0
2018-Nov-08 19:02N 52°12' W 006°01'815.5
2018-Nov-08 18:32N 52°14' W 006°13'5 9.2
2018-Nov-08 18:02N 52°15' W 006°20'0 0.0
2018-Nov-08 17:32N 52°15' W 006°20'0 0.0
2018-Nov-08 17:02N 52°15' W 006°20'0 0.3
2018-Nov-08 16:32N 52°15' W 006°20'612.0
2018-Nov-08 16:03N 52°14' W 006°11'815.8
2018-Nov-08 15:32N 52°12' W 005°58'3 0.2
2018-Nov-07 19:10N 52°11' W 005°53'217.3
2018-Nov-07 19:02N 52°11' W 005°57'917.2
2018-Nov-07 18:32N 52°14' W 006°11'612.2
2018-Nov-07 18:02N 52°15' W 006°20'0 0.0
2018-Nov-07 17:32N 52°15' W 006°20'0 0.0
2018-Nov-07 17:02N 52°15' W 006°20'0 0.4
2018-Nov-07 16:32N 52°15' W 006°20'714.7
2018-Nov-07 16:02N 52°13' W 006°09'815.8
2018-Nov-07 15:32N 52°12' W 005°56'10 0.5
2018-Nov-06 19:59N 52°09' W 005°40'916.1
2018-Nov-06 19:27N 52°10' W 005°54'615.3
2018-Nov-06 19:03N 52°12' W 006°03'114.6
2018-Nov-06 19:00N 52°13' W 006°04'815.6
2018-Nov-06 18:30N 52°15' W 006°16'2 5.2
2018-Nov-06 18:03N 52°15' W 006°20'0 0.0
2018-Nov-06 18:00N 52°15' W 006°20'0 0.0
2018-Nov-06 17:30N 52°15' W 006°20'0 0.0
2018-Nov-06 17:03N 52°15' W 006°20'0 0.0
2018-Nov-06 17:00N 52°15' W 006°20'0 0.3
2018-Nov-06 16:30N 52°15' W 006°20'511.5
2018-Nov-06 16:03N 52°14' W 006°12'115.2
2018-Nov-06 16:00N 52°14' W 006°11'714.5
2018-Nov-06 15:30N 52°12' W 005°59'715.4
2018-Nov-06 15:03N 52°11' W 005°48'116.0
2018-Nov-06 15:00N 52°10' W 005°47'2 0.4
2018-Nov-06 09:20N 52°09' W 005°45'516.2
2018-Nov-06 09:03N 52°10' W 005°52'116.0
2018-Nov-06 09:00N 52°11' W 005°53'816.1
2018-Nov-06 08:30N 52°13' W 006°05'716.2
2018-Nov-06 08:03N 52°15' W 006°17'115.7
2018-Nov-06 08:00N 52°15' W 006°18'1 2.8
2018-Nov-06 07:30N 52°15' W 006°20'0 0.0
2018-Nov-06 07:03N 52°15' W 006°20'0 0.0
2018-Nov-06 07:00N 52°15' W 006°20'0 0.0
2018-Nov-06 06:30N 52°15' W 006°20'0 0.0
2018-Nov-06 06:03N 52°15' W 006°20'0 0.0
2018-Nov-06 06:00N 52°15' W 006°20'0 0.0
2018-Nov-06 05:30N 52°15' W 006°20'0 0.0
2018-Nov-06 05:03N 52°15' W 006°20'0 0.0
2018-Nov-06 05:00N 52°15' W 006°20'0 0.0
2018-Nov-06 04:30N 52°15' W 006°20'0 0.0
2018-Nov-06 04:03N 52°15' W 006°20'0 0.0
2018-Nov-06 04:00N 52°15' W 006°20'4 7.7
2018-Nov-06 03:30N 52°14' W 006°14'614.4
2018-Nov-06 03:03N 52°13' W 006°04'114.4
2018-Nov-06 03:00N 52°13' W 006°03'714.4
2018-Nov-06 02:30N 52°11' W 005°51'714.6
2018-Nov-06 02:02N 52°09' W 005°40'2 0.4
2018-Nov-05 19:20N 52°10' W 005°44'416.6
2018-Nov-05 19:03N 52°11' W 005°51'116.7
2018-Nov-05 19:00N 52°11' W 005°52'816.7
2018-Nov-05 18:30N 52°13' W 006°06'716.4
2018-Nov-05 18:03N 52°15' W 006°17'115.7
2018-Nov-05 18:00N 52°15' W 006°18'1 2.1
2018-Nov-05 17:30N 52°15' W 006°20'0 0.0
2018-Nov-05 17:04N 52°15' W 006°20'0 0.0
2018-Nov-05 17:00N 52°15' W 006°20'0 0.0
2018-Nov-05 16:30N 52°15' W 006°20'3 7.0
2018-Nov-05 16:03N 52°14' W 006°15'116.8
2018-Nov-05 16:00N 52°14' W 006°14'816.8
2018-Nov-05 15:30N 52°12' W 006°00'817.0
2018-Nov-05 15:03N 52°11' W 005°48'117.5
2018-Nov-05 15:00N 52°10' W 005°47'6 1.0
2018-Nov-05 08:55N 52°11' W 005°57'615.8
2018-Nov-05 08:30N 52°13' W 006°07'715.1
2018-Nov-05 08:03N 52°15' W 006°17'115.8
2018-Nov-05 08:00N 52°15' W 006°19'1 2.0
2018-Nov-05 07:30N 52°15' W 006°20'0 0.0
2018-Nov-05 07:03N 52°15' W 006°20'0 0.0
2018-Nov-05 07:00N 52°15' W 006°20'0 0.0
2018-Nov-05 06:30N 52°15' W 006°20'0 0.0
2018-Nov-05 06:03N 52°15' W 006°20'0 0.0
2018-Nov-05 06:00N 52°15' W 006°20'0 0.0
2018-Nov-05 05:30N 52°15' W 006°20'0 0.0
2018-Nov-05 05:03N 52°15' W 006°20'0 0.0
2018-Nov-05 05:00N 52°15' W 006°20'0 0.0
2018-Nov-05 04:30N 52°15' W 006°20'0 0.0
2018-Nov-05 04:03N 52°15' W 006°20'0 0.0
2018-Nov-05 04:00N 52°15' W 006°20'3 6.1
2018-Nov-05 03:30N 52°14' W 006°15'613.1
2018-Nov-05 03:03N 52°13' W 006°06'112.3
2018-Nov-05 03:00N 52°13' W 006°05'612.5
2018-Nov-05 02:30N 52°12' W 005°55'613.0
2018-Nov-05 02:03N 52°10' W 005°46'114.2
2018-Nov-05 02:00N 52°10' W 005°45'4 0.5
2018-Nov-04 19:15N 52°10' W 005°51'316.3
2018-Nov-04 19:03N 52°11' W 005°55'116.3
2018-Nov-04 19:00N 52°11' W 005°57'816.6
2018-Nov-04 18:30N 52°13' W 006°10'715.5
2018-Nov-04 18:04N 52°16' W 006°20'0 6.2
2018-Nov-04 18:00N 52°15' W 006°20'0 0.0
2018-Nov-04 17:03N 52°15' W 006°20'0 0.0
2018-Nov-04 17:00N 52°15' W 006°20'0 0.4
2018-Nov-04 16:30N 52°16' W 006°20'714.9
2018-Nov-04 16:03N 52°14' W 006°10'116.3
2018-Nov-04 16:00N 52°13' W 006°09'816.3
2018-Nov-04 15:30N 52°11' W 005°56'716.1
2018-Nov-04 15:03N 52°10' W 005°44'116.0
2018-Nov-04 15:00N 52°10' W 005°43'10 1.6
2018-Nov-04 08:51N 52°12' W 005°58'616.6
2018-Nov-04 08:31N 52°13' W 006°07'816.7
2018-Nov-04 08:03N 52°16' W 006°19'114.4
2018-Nov-04 08:01N 52°16' W 006°20'0 0.7
2018-Nov-04 07:31N 52°15' W 006°20'0 0.0
2018-Nov-04 07:04N 52°15' W 006°20'0 0.0
2018-Nov-04 07:00N 52°15' W 006°20'0 0.0
2018-Nov-04 06:30N 52°15' W 006°20'0 0.0
2018-Nov-04 06:03N 52°15' W 006°20'0 0.0
2018-Nov-04 06:00N 52°15' W 006°20'0 0.0
2018-Nov-04 05:31N 52°15' W 006°20'0 0.0
2018-Nov-04 05:03N 52°15' W 006°20'0 0.0
2018-Nov-04 05:01N 52°15' W 006°20'0 0.0
2018-Nov-04 04:31N 52°15' W 006°20'0 0.0
2018-Nov-04 04:03N 52°15' W 006°20'0 2.2
2018-Nov-04 04:00N 52°15' W 006°20'611.3
2018-Nov-04 03:30N 52°15' W 006°11'511.4
2018-Nov-04 03:03N 52°17' W 006°03'111.6
2018-Nov-04 03:00N 52°17' W 006°03'611.5
2018-Nov-04 02:30N 52°20' W 005°54'612.3
2018-Nov-04 02:01N 52°18' W 005°45'013.5
2018-Nov-04 02:00N 52°18' W 005°44'10 0.6
2018-Nov-03 09:01N 52°12' W 005°57'115.7
2018-Nov-03 08:59N 52°12' W 005°58'715.3
2018-Nov-03 08:30N 52°13' W 006°09'715.5
2018-Nov-03 08:03N 52°16' W 006°20'0 6.4
2018-Nov-03 08:00N 52°15' W 006°20'0 0.3
2018-Nov-03 07:30N 52°15' W 006°20'0 0.0
2018-Nov-03 07:03N 52°15' W 006°20'0 0.0
2018-Nov-03 07:01N 52°15' W 006°20'0 0.0
2018-Nov-03 06:31N 52°15' W 006°20'0 0.0
2018-Nov-03 06:03N 52°15' W 006°20'0 0.0
2018-Nov-03 06:00N 52°15' W 006°20'0 0.0
2018-Nov-03 05:30N 52°15' W 006°20'0 0.0
2018-Nov-03 05:03N 52°15' W 006°20'0 0.0
2018-Nov-03 05:01N 52°15' W 006°20'0 0.0
2018-Nov-03 04:31N 52°15' W 006°20'0 0.0
2018-Nov-03 04:04N 52°15' W 006°20'0 0.4
2018-Nov-03 04:01N 52°15' W 006°20'510.2
2018-Nov-03 03:31N 52°14' W 006°12'614.3
2018-Nov-03 03:03N 52°13' W 006°02'114.2
2018-Nov-03 03:00N 52°13' W 006°01'713.5
2018-Nov-03 02:30N 52°11' W 005°50'611.6
2018-Nov-03 02:01N 52°09' W 005°41'111.5
2018-Nov-03 01:57N 52°09' W 005°40'10 1.5
2018-Nov-02 18:57N 52°12' W 005°56'817.3
2018-Nov-02 18:30N 52°14' W 006°09'715.9
2018-Nov-02 18:03N 52°16' W 006°20'0 7.8
2018-Nov-02 18:00N 52°15' W 006°20'0 0.3
2018-Nov-02 17:30N 52°15' W 006°20'0 0.0
2018-Nov-02 17:03N 52°15' W 006°20'0 0.0
2018-Nov-02 17:01N 52°15' W 006°20'1 2.0
2018-Nov-02 16:30N 52°15' W 006°18'715.9
2018-Nov-02 16:03N 52°14' W 006°07'115.8
2018-Nov-02 16:01N 52°14' W 006°06'816.3
2018-Nov-02 15:31N 52°13' W 005°53'7 1.1
2018-Nov-02 09:20N 52°09' W 005°44'516.9
2018-Nov-02 09:03N 52°10' W 005°51'116.4
2018-Nov-02 09:00N 52°11' W 005°52'816.6
2018-Nov-02 08:30N 52°13' W 006°05'817.0
2018-Nov-02 08:03N 52°15' W 006°17'117.7
2018-Nov-02 08:00N 52°15' W 006°19'1 2.0
2018-Nov-02 07:30N 52°15' W 006°20'0 0.0
2018-Nov-02 07:04N 52°15' W 006°20'0 0.0
2018-Nov-02 07:00N 52°15' W 006°20'0 0.0
2018-Nov-02 06:31N 52°15' W 006°20'0 0.0
2018-Nov-02 06:04N 52°15' W 006°20'0 0.0
2018-Nov-02 06:00N 52°15' W 006°20'0 0.0
2018-Nov-02 05:30N 52°15' W 006°20'0 0.0
2018-Nov-02 05:04N 52°15' W 006°20'0 0.1
2018-Nov-02 05:01N 52°15' W 006°20'5 9.9
2018-Nov-02 04:30N 52°14' W 006°12'716.3
2018-Nov-02 04:03N 52°12' W 006°01'116.4
2018-Nov-02 04:00N 52°12' W 005°59'816.3
2018-Nov-02 03:30N 52°10' W 005°46'1 0.2
2018-Nov-01 20:32N 52°10' W 005°44'216.8
2018-Nov-01 20:26N 52°10' W 005°47'616.6
2018-Nov-01 20:03N 52°11' W 005°57'116.6
2018-Nov-01 20:00N 52°12' W 005°58'816.4
2018-Nov-01 19:30N 52°14' W 006°11'613.1
2018-Nov-01 19:04N 52°15' W 006°20'0 0.0
2018-Nov-01 19:00N 52°15' W 006°20'0 0.0
2018-Nov-01 18:30N 52°15' W 006°20'0 0.0
2018-Nov-01 18:03N 52°15' W 006°20'0 0.0
2018-Nov-01 18:00N 52°15' W 006°20'0 0.0
2018-Nov-01 17:31N 52°15' W 006°20'2 3.6
2018-Nov-01 17:03N 52°15' W 006°18'115.1
2018-Nov-01 17:00N 52°15' W 006°17'816.6
2018-Nov-01 16:30N 52°12' W 006°03'716.3
2018-Nov-01 16:03N 52°11' W 005°52'116.3
2018-Nov-01 16:00N 52°11' W 005°50'1 0.2
2018-Nov-01 09:17N 52°11' W 005°48'417.2
2018-Nov-01 09:03N 52°11' W 005°55'116.6
2018-Nov-01 09:00N 52°11' W 005°56'817.0
2018-Nov-01 08:30N 52°13' W 006°09'715.6
2018-Nov-01 08:03N 52°15' W 006°20'0 3.5
2018-Nov-01 08:00N 52°15' W 006°20'0 0.0
2018-Nov-01 07:30N 52°15' W 006°20'0 0.0
2018-Nov-01 07:03N 52°15' W 006°20'0 0.0
2018-Nov-01 07:00N 52°15' W 006°20'0 0.0
2018-Nov-01 06:30N 52°15' W 006°20'0 0.0
2018-Nov-01 06:03N 52°15' W 006°20'0 0.0
2018-Nov-01 06:00N 52°15' W 006°20'0 0.0
2018-Nov-01 05:30N 52°15' W 006°20'0 0.0
2018-Nov-01 05:03N 52°15' W 006°20'0 0.0
2018-Nov-01 05:00N 52°15' W 006°20'0 0.0
2018-Nov-01 04:30N 52°15' W 006°20'0 0.6
2018-Nov-01 04:03N 52°16' W 006°20'111.2
2018-Nov-01 04:00N 52°16' W 006°20'815.7
2018-Nov-01 03:30N 52°13' W 006°07'716.3
2018-Nov-01 03:03N 52°11' W 005°56'116.2
2018-Nov-01 03:00N 52°11' W 005°54'  

Dump ship's entire track history